sensor_id;sensor_type;location;lat;lon;timestamp;P1;durP1;ratioP1;P2;durP2;ratioP2
8831;SDS011;4452;50.756;4.472;2023-05-06T00:01:03;7.45;;;2.83;;
8831;SDS011;4452;50.756;4.472;2023-05-06T00:03:29;4.85;;;3.15;;
8831;SDS011;4452;50.756;4.472;2023-05-06T00:05:55;4.20;;;2.78;;
8831;SDS011;4452;50.756;4.472;2023-05-06T00:08:20;3.20;;;2.88;;
8831;SDS011;4452;50.756;4.472;2023-05-06T00:10:46;4.93;;;2.80;;
8831;SDS011;4452;50.756;4.472;2023-05-06T00:13:12;5.32;;;2.80;;
8831;SDS011;4452;50.756;4.472;2023-05-06T00:15:38;3.47;;;2.85;;
8831;SDS011;4452;50.756;4.472;2023-05-06T00:18:04;3.38;;;3.08;;
8831;SDS011;4452;50.756;4.472;2023-05-06T00:20:30;6.68;;;2.85;;
8831;SDS011;4452;50.756;4.472;2023-05-06T00:22:56;7.97;;;3.72;;
8831;SDS011;4452;50.756;4.472;2023-05-06T00:25:22;8.57;;;3.28;;
8831;SDS011;4452;50.756;4.472;2023-05-06T00:27:48;4.22;;;3.20;;
8831;SDS011;4452;50.756;4.472;2023-05-06T00:30:14;5.40;;;3.35;;
8831;SDS011;4452;50.756;4.472;2023-05-06T00:32:39;5.40;;;3.53;;
8831;SDS011;4452;50.756;4.472;2023-05-06T00:35:05;4.22;;;3.40;;
8831;SDS011;4452;50.756;4.472;2023-05-06T00:37:31;4.05;;;3.65;;
8831;SDS011;4452;50.756;4.472;2023-05-06T00:39:57;3.70;;;3.08;;
8831;SDS011;4452;50.756;4.472;2023-05-06T00:42:23;3.75;;;3.40;;
8831;SDS011;4452;50.756;4.472;2023-05-06T00:44:49;4.32;;;3.30;;
8831;SDS011;4452;50.756;4.472;2023-05-06T00:47:15;4.38;;;3.45;;
8831;SDS011;4452;50.756;4.472;2023-05-06T00:49:42;3.75;;;3.35;;
8831;SDS011;4452;50.756;4.472;2023-05-06T00:52:08;6.38;;;3.60;;
8831;SDS011;4452;50.756;4.472;2023-05-06T00:54:34;6.55;;;3.97;;
8831;SDS011;4452;50.756;4.472;2023-05-06T00:57:00;4.07;;;3.67;;
8831;SDS011;4452;50.756;4.472;2023-05-06T00:59:27;4.32;;;3.60;;
8831;SDS011;4452;50.756;4.472;2023-05-06T01:01:52;4.20;;;3.80;;
8831;SDS011;4452;50.756;4.472;2023-05-06T01:04:19;7.38;;;3.45;;
8831;SDS011;4452;50.756;4.472;2023-05-06T01:06:49;5.20;;;3.42;;
8831;SDS011;4452;50.756;4.472;2023-05-06T01:09:30;5.97;;;3.50;;
8831;SDS011;4452;50.756;4.472;2023-05-06T01:12:16;4.28;;;3.70;;
8831;SDS011;4452;50.756;4.472;2023-05-06T01:15:15;3.92;;;3.33;;
8831;SDS011;4452;50.756;4.472;2023-05-06T01:17:45;4.57;;;3.78;;
8831;SDS011;4452;50.756;4.472;2023-05-06T01:20:16;4.68;;;4.25;;
8831;SDS011;4452;50.756;4.472;2023-05-06T01:22:45;8.50;;;4.25;;
8831;SDS011;4452;50.756;4.472;2023-05-06T01:25:17;6.60;;;4.47;;
8831;SDS011;4452;50.756;4.472;2023-05-06T01:27:44;5.47;;;3.50;;
8831;SDS011;4452;50.756;4.472;2023-05-06T01:30:10;6.97;;;4.45;;
8831;SDS011;4452;50.756;4.472;2023-05-06T01:37:48;4.63;;;3.45;;
8831;SDS011;4452;50.756;4.472;2023-05-06T01:40:24;7.00;;;4.25;;
8831;SDS011;4452;50.756;4.472;2023-05-06T01:42:51;6.68;;;4.20;;
8831;SDS011;4452;50.756;4.472;2023-05-06T01:45:18;7.57;;;3.95;;
8831;SDS011;4452;50.756;4.472;2023-05-06T01:47:45;4.47;;;4.03;;
8831;SDS011;4452;50.756;4.472;2023-05-06T01:50:12;4.40;;;4.00;;
8831;SDS011;4452;50.756;4.472;2023-05-06T01:52:38;6.63;;;4.28;;
8831;SDS011;4452;50.756;4.472;2023-05-06T01:55:04;5.95;;;4.25;;
8831;SDS011;4452;50.756;4.472;2023-05-06T01:57:30;4.55;;;4.15;;
8831;SDS011;4452;50.756;4.472;2023-05-06T01:59:56;5.68;;;4.40;;
8831;SDS011;4452;50.756;4.472;2023-05-06T02:02:21;5.15;;;3.90;;
8831;SDS011;4452;50.756;4.472;2023-05-06T02:04:48;5.63;;;3.90;;
8831;SDS011;4452;50.756;4.472;2023-05-06T02:07:15;5.47;;;4.13;;
8831;SDS011;4452;50.756;4.472;2023-05-06T02:09:41;5.03;;;4.03;;
8831;SDS011;4452;50.756;4.472;2023-05-06T02:12:06;7.30;;;4.53;;
8831;SDS011;4452;50.756;4.472;2023-05-06T02:14:32;5.40;;;3.90;;
8831;SDS011;4452;50.756;4.472;2023-05-06T02:17:01;5.25;;;4.20;;
8831;SDS011;4452;50.756;4.472;2023-05-06T02:19:28;5.05;;;4.57;;
8831;SDS011;4452;50.756;4.472;2023-05-06T02:21:54;5.82;;;4.32;;
8831;SDS011;4452;50.756;4.472;2023-05-06T02:24:20;6.10;;;4.47;;
8831;SDS011;4452;50.756;4.472;2023-05-06T02:26:45;4.78;;;4.28;;
8831;SDS011;4452;50.756;4.472;2023-05-06T02:29:11;5.30;;;4.18;;
8831;SDS011;4452;50.756;4.472;2023-05-06T02:31:37;4.75;;;4.25;;
8831;SDS011;4452;50.756;4.472;2023-05-06T02:34:03;4.60;;;3.95;;
8831;SDS011;4452;50.756;4.472;2023-05-06T02:36:29;6.15;;;4.07;;
8831;SDS011;4452;50.756;4.472;2023-05-06T02:38:54;8.88;;;4.10;;
8831;SDS011;4452;50.756;4.472;2023-05-06T02:41:20;7.35;;;4.47;;
8831;SDS011;4452;50.756;4.472;2023-05-06T02:43:46;4.65;;;4.22;;
8831;SDS011;4452;50.756;4.472;2023-05-06T02:46:11;6.55;;;4.78;;
8831;SDS011;4452;50.756;4.472;2023-05-06T02:48:37;4.68;;;4.07;;
8831;SDS011;4452;50.756;4.472;2023-05-06T02:51:03;6.70;;;4.72;;
8831;SDS011;4452;50.756;4.472;2023-05-06T02:53:30;6.00;;;4.53;;
8831;SDS011;4452;50.756;4.472;2023-05-06T02:55:55;5.25;;;4.38;;
8831;SDS011;4452;50.756;4.472;2023-05-06T02:58:21;6.22;;;4.95;;
8831;SDS011;4452;50.756;4.472;2023-05-06T03:00:47;5.78;;;4.38;;
8831;SDS011;4452;50.756;4.472;2023-05-06T03:03:12;7.18;;;4.47;;
8831;SDS011;4452;50.756;4.472;2023-05-06T03:05:38;7.80;;;4.95;;
8831;SDS011;4452;50.756;4.472;2023-05-06T03:08:04;5.43;;;4.72;;
8831;SDS011;4452;50.756;4.472;2023-05-06T03:10:29;6.03;;;4.82;;
8831;SDS011;4452;50.756;4.472;2023-05-06T03:12:55;8.45;;;5.20;;
8831;SDS011;4452;50.756;4.472;2023-05-06T03:15:21;7.25;;;4.93;;
8831;SDS011;4452;50.756;4.472;2023-05-06T03:17:46;6.03;;;5.05;;
8831;SDS011;4452;50.756;4.472;2023-05-06T03:20:12;5.25;;;4.78;;
8831;SDS011;4452;50.756;4.472;2023-05-06T03:22:38;7.63;;;5.00;;
8831;SDS011;4452;50.756;4.472;2023-05-06T03:25:03;9.82;;;5.45;;
8831;SDS011;4452;50.756;4.472;2023-05-06T03:27:30;6.60;;;5.18;;
8831;SDS011;4452;50.756;4.472;2023-05-06T03:29:55;5.55;;;5.05;;
8831;SDS011;4452;50.756;4.472;2023-05-06T03:32:21;8.02;;;5.43;;
8831;SDS011;4452;50.756;4.472;2023-05-06T03:34:46;8.65;;;5.22;;
8831;SDS011;4452;50.756;4.472;2023-05-06T03:37:12;7.05;;;5.15;;
8831;SDS011;4452;50.756;4.472;2023-05-06T03:39:38;8.23;;;5.20;;
8831;SDS011;4452;50.756;4.472;2023-05-06T03:42:03;5.95;;;5.18;;
8831;SDS011;4452;50.756;4.472;2023-05-06T03:44:29;7.40;;;5.50;;
8831;SDS011;4452;50.756;4.472;2023-05-06T03:46:55;5.95;;;4.95;;
8831;SDS011;4452;50.756;4.472;2023-05-06T03:49:20;8.35;;;5.25;;
8831;SDS011;4452;50.756;4.472;2023-05-06T03:51:46;7.85;;;5.60;;
8831;SDS011;4452;50.756;4.472;2023-05-06T03:54:12;6.80;;;5.03;;
8831;SDS011;4452;50.756;4.472;2023-05-06T03:56:38;6.05;;;5.45;;
8831;SDS011;4452;50.756;4.472;2023-05-06T03:59:03;6.20;;;5.57;;
8831;SDS011;4452;50.756;4.472;2023-05-06T04:01:29;10.32;;;5.50;;
8831;SDS011;4452;50.756;4.472;2023-05-06T04:03:54;5.78;;;5.15;;
8831;SDS011;4452;50.756;4.472;2023-05-06T04:06:20;6.82;;;5.47;;
8831;SDS011;4452;50.756;4.472;2023-05-06T04:08:46;6.30;;;5.32;;
8831;SDS011;4452;50.756;4.472;2023-05-06T04:11:11;6.40;;;5.55;;
8831;SDS011;4452;50.756;4.472;2023-05-06T04:13:37;6.70;;;5.60;;
8831;SDS011;4452;50.756;4.472;2023-05-06T04:16:03;5.80;;;5.28;;
8831;SDS011;4452;50.756;4.472;2023-05-06T04:18:29;7.97;;;5.22;;
8831;SDS011;4452;50.756;4.472;2023-05-06T04:20:55;6.13;;;5.22;;
8831;SDS011;4452;50.756;4.472;2023-05-06T04:23:21;8.85;;;5.63;;
8831;SDS011;4452;50.756;4.472;2023-05-06T04:25:46;9.13;;;5.40;;
8831;SDS011;4452;50.756;4.472;2023-05-06T04:28:13;6.35;;;5.40;;
8831;SDS011;4452;50.756;4.472;2023-05-06T04:30:43;6.13;;;5.05;;
8831;SDS011;4452;50.756;4.472;2023-05-06T04:33:09;7.18;;;4.97;;
8831;SDS011;4452;50.756;4.472;2023-05-06T04:35:36;10.23;;;5.25;;
8831;SDS011;4452;50.756;4.472;2023-05-06T04:38:02;5.60;;;5.07;;
8831;SDS011;4452;50.756;4.472;2023-05-06T04:40:28;7.82;;;5.03;;
8831;SDS011;4452;50.756;4.472;2023-05-06T04:42:54;7.97;;;5.25;;
8831;SDS011;4452;50.756;4.472;2023-05-06T04:45:19;5.72;;;5.07;;
8831;SDS011;4452;50.756;4.472;2023-05-06T04:47:46;5.72;;;5.22;;
8831;SDS011;4452;50.756;4.472;2023-05-06T04:50:12;6.07;;;5.35;;
8831;SDS011;4452;50.756;4.472;2023-05-06T04:52:37;5.53;;;5.03;;
8831;SDS011;4452;50.756;4.472;2023-05-06T04:55:03;6.65;;;4.78;;
8831;SDS011;4452;50.756;4.472;2023-05-06T04:57:30;5.20;;;4.70;;
8831;SDS011;4452;50.756;4.472;2023-05-06T04:59:56;8.88;;;5.10;;
8831;SDS011;4452;50.756;4.472;2023-05-06T05:02:22;6.63;;;4.78;;
8831;SDS011;4452;50.756;4.472;2023-05-06T05:04:47;8.07;;;5.03;;
8831;SDS011;4452;50.756;4.472;2023-05-06T05:07:13;6.45;;;5.03;;
8831;SDS011;4452;50.756;4.472;2023-05-06T05:09:39;5.00;;;4.50;;
8831;SDS011;4452;50.756;4.472;2023-05-06T05:12:04;5.80;;;5.13;;
8831;SDS011;4452;50.756;4.472;2023-05-06T05:14:30;6.30;;;5.57;;
8831;SDS011;4452;50.756;4.472;2023-05-06T05:16:56;8.15;;;5.28;;
8831;SDS011;4452;50.756;4.472;2023-05-06T05:19:21;7.97;;;5.78;;
8831;SDS011;4452;50.756;4.472;2023-05-06T05:21:47;6.70;;;5.43;;
8831;SDS011;4452;50.756;4.472;2023-05-06T05:24:13;7.78;;;6.43;;
8831;SDS011;4452;50.756;4.472;2023-05-06T05:26:40;9.10;;;4.80;;
8831;SDS011;4452;50.756;4.472;2023-05-06T05:29:06;4.72;;;4.28;;
8831;SDS011;4452;50.756;4.472;2023-05-06T05:31:32;5.43;;;4.93;;
8831;SDS011;4452;50.756;4.472;2023-05-06T05:33:58;8.23;;;4.78;;
8831;SDS011;4452;50.756;4.472;2023-05-06T05:36:23;6.20;;;4.95;;
8831;SDS011;4452;50.756;4.472;2023-05-06T05:38:50;5.28;;;4.72;;
8831;SDS011;4452;50.756;4.472;2023-05-06T05:41:16;5.07;;;4.57;;
8831;SDS011;4452;50.756;4.472;2023-05-06T05:43:41;6.88;;;4.57;;
8831;SDS011;4452;50.756;4.472;2023-05-06T05:46:07;5.10;;;4.15;;
8831;SDS011;4452;50.756;4.472;2023-05-06T05:48:33;4.60;;;4.20;;
8831;SDS011;4452;50.756;4.472;2023-05-06T05:51:02;4.80;;;3.83;;
8831;SDS011;4452;50.756;4.472;2023-05-06T05:53:27;6.88;;;4.28;;
8831;SDS011;4452;50.756;4.472;2023-05-06T05:55:53;4.10;;;3.80;;
8831;SDS011;4452;50.756;4.472;2023-05-06T05:58:19;4.80;;;3.90;;
8831;SDS011;4452;50.756;4.472;2023-05-06T06:00:44;4.13;;;3.72;;
8831;SDS011;4452;50.756;4.472;2023-05-06T06:03:10;7.03;;;3.85;;
8831;SDS011;4452;50.756;4.472;2023-05-06T06:05:36;3.78;;;3.47;;
8831;SDS011;4452;50.756;4.472;2023-05-06T06:08:01;6.50;;;3.67;;
8831;SDS011;4452;50.756;4.472;2023-05-06T06:10:27;3.60;;;3.40;;
8831;SDS011;4452;50.756;4.472;2023-05-06T06:12:53;6.72;;;3.70;;
8831;SDS011;4452;50.756;4.472;2023-05-06T06:15:19;6.50;;;3.60;;
8831;SDS011;4452;50.756;4.472;2023-05-06T06:17:45;8.35;;;3.65;;
8831;SDS011;4452;50.756;4.472;2023-05-06T06:20:11;7.00;;;3.40;;
8831;SDS011;4452;50.756;4.472;2023-05-06T06:22:37;2.92;;;2.70;;
8831;SDS011;4452;50.756;4.472;2023-05-06T06:25:03;3.95;;;3.08;;
8831;SDS011;4452;50.756;4.472;2023-05-06T06:27:29;6.35;;;2.83;;
8831;SDS011;4452;50.756;4.472;2023-05-06T06:29:58;3.00;;;2.80;;
8831;SDS011;4452;50.756;4.472;2023-05-06T06:32:23;3.47;;;2.92;;
8831;SDS011;4452;50.756;4.472;2023-05-06T06:34:49;3.25;;;2.95;;
8831;SDS011;4452;50.756;4.472;2023-05-06T06:37:15;2.95;;;2.75;;
8831;SDS011;4452;50.756;4.472;2023-05-06T06:39:40;4.80;;;3.00;;
8831;SDS011;4452;50.756;4.472;2023-05-06T06:42:06;3.70;;;3.03;;
8831;SDS011;4452;50.756;4.472;2023-05-06T06:44:35;3.47;;;3.17;;
8831;SDS011;4452;50.756;4.472;2023-05-06T06:47:00;4.90;;;3.00;;
8831;SDS011;4452;50.756;4.472;2023-05-06T06:49:27;7.70;;;3.00;;
8831;SDS011;4452;50.756;4.472;2023-05-06T06:51:52;6.03;;;3.08;;
8831;SDS011;4452;50.756;4.472;2023-05-06T06:54:20;3.97;;;2.78;;
8831;SDS011;4452;50.756;4.472;2023-05-06T06:56:46;4.03;;;2.80;;
8831;SDS011;4452;50.756;4.472;2023-05-06T06:59:12;3.67;;;2.88;;
8831;SDS011;4452;50.756;4.472;2023-05-06T07:01:39;4.55;;;3.05;;
8831;SDS011;4452;50.756;4.472;2023-05-06T07:04:05;4.13;;;3.08;;
8831;SDS011;4452;50.756;4.472;2023-05-06T07:06:31;3.30;;;2.90;;
8831;SDS011;4452;50.756;4.472;2023-05-06T07:08:57;7.85;;;3.38;;
8831;SDS011;4452;50.756;4.472;2023-05-06T07:11:22;6.05;;;3.15;;
8831;SDS011;4452;50.756;4.472;2023-05-06T07:13:48;3.53;;;2.90;;
8831;SDS011;4452;50.756;4.472;2023-05-06T07:16:14;3.20;;;2.85;;
8831;SDS011;4452;50.756;4.472;2023-05-06T07:18:39;6.15;;;3.38;;
8831;SDS011;4452;50.756;4.472;2023-05-06T07:21:05;3.65;;;2.92;;
8831;SDS011;4452;50.756;4.472;2023-05-06T07:23:30;3.20;;;2.90;;
8831;SDS011;4452;50.756;4.472;2023-05-06T07:25:57;6.05;;;3.33;;
8831;SDS011;4452;50.756;4.472;2023-05-06T07:28:23;4.13;;;3.10;;
8831;SDS011;4452;50.756;4.472;2023-05-06T07:30:50;6.63;;;3.30;;
8831;SDS011;4452;50.756;4.472;2023-05-06T07:33:16;4.82;;;2.95;;
8831;SDS011;4452;50.756;4.472;2023-05-06T07:35:42;12.90;;;3.45;;
8831;SDS011;4452;50.756;4.472;2023-05-06T07:38:08;3.47;;;3.05;;
8831;SDS011;4452;50.756;4.472;2023-05-06T07:40:34;3.85;;;3.30;;
8831;SDS011;4452;50.756;4.472;2023-05-06T07:43:01;8.00;;;3.78;;
8831;SDS011;4452;50.756;4.472;2023-05-06T07:45:26;8.68;;;3.60;;
8831;SDS011;4452;50.756;4.472;2023-05-06T07:47:52;5.88;;;3.78;;
8831;SDS011;4452;50.756;4.472;2023-05-06T07:50:18;7.43;;;4.10;;
8831;SDS011;4452;50.756;4.472;2023-05-06T07:52:43;7.57;;;3.95;;
8831;SDS011;4452;50.756;4.472;2023-05-06T07:55:09;8.63;;;3.67;;
8831;SDS011;4452;50.756;4.472;2023-05-06T07:57:35;15.73;;;3.40;;
8831;SDS011;4452;50.756;4.472;2023-05-06T08:00:01;10.32;;;3.50;;
8831;SDS011;4452;50.756;4.472;2023-05-06T08:02:27;6.88;;;3.88;;
8831;SDS011;4452;50.756;4.472;2023-05-06T08:04:54;7.55;;;3.63;;
8831;SDS011;4452;50.756;4.472;2023-05-06T08:07:19;7.38;;;3.85;;
8831;SDS011;4452;50.756;4.472;2023-05-06T08:09:45;9.13;;;3.50;;
8831;SDS011;4452;50.756;4.472;2023-05-06T08:12:11;6.97;;;3.88;;
8831;SDS011;4452;50.756;4.472;2023-05-06T08:14:36;6.53;;;3.28;;
8831;SDS011;4452;50.756;4.472;2023-05-06T08:17:02;4.60;;;3.35;;
8831;SDS011;4452;50.756;4.472;2023-05-06T08:19:28;5.38;;;3.40;;
8831;SDS011;4452;50.756;4.472;2023-05-06T08:21:54;4.88;;;3.38;;
8831;SDS011;4452;50.756;4.472;2023-05-06T08:24:19;17.33;;;3.60;;
8831;SDS011;4452;50.756;4.472;2023-05-06T08:26:45;3.28;;;2.97;;
8831;SDS011;4452;50.756;4.472;2023-05-06T08:29:11;7.07;;;3.40;;
8831;SDS011;4452;50.756;4.472;2023-05-06T08:31:37;5.57;;;3.30;;
8831;SDS011;4452;50.756;4.472;2023-05-06T08:34:03;6.43;;;3.13;;
8831;SDS011;4452;50.756;4.472;2023-05-06T08:36:28;9.82;;;3.40;;
8831;SDS011;4452;50.756;4.472;2023-05-06T08:38:54;8.75;;;2.97;;
8831;SDS011;4452;50.756;4.472;2023-05-06T08:41:20;4.30;;;3.05;;
8831;SDS011;4452;50.756;4.472;2023-05-06T08:43:48;6.47;;;3.10;;
8831;SDS011;4452;50.756;4.472;2023-05-06T08:46:15;3.25;;;2.70;;
8831;SDS011;4452;50.756;4.472;2023-05-06T08:48:41;4.97;;;2.85;;
8831;SDS011;4452;50.756;4.472;2023-05-06T08:51:07;6.35;;;2.90;;
8831;SDS011;4452;50.756;4.472;2023-05-06T08:53:34;8.93;;;3.03;;
8831;SDS011;4452;50.756;4.472;2023-05-06T08:56:05;7.43;;;3.40;;
8831;SDS011;4452;50.756;4.472;2023-05-06T08:58:33;11.25;;;3.55;;
8831;SDS011;4452;50.756;4.472;2023-05-06T09:00:59;5.47;;;3.67;;
8831;SDS011;4452;50.756;4.472;2023-05-06T09:03:26;6.65;;;3.70;;
8831;SDS011;4452;50.756;4.472;2023-05-06T09:05:52;9.98;;;3.65;;
8831;SDS011;4452;50.756;4.472;2023-05-06T09:08:18;9.68;;;3.67;;
8831;SDS011;4452;50.756;4.472;2023-05-06T09:10:44;10.32;;;3.97;;
8831;SDS011;4452;50.756;4.472;2023-05-06T09:13:14;10.63;;;3.92;;
8831;SDS011;4452;50.756;4.472;2023-05-06T09:15:41;7.90;;;4.07;;
8831;SDS011;4452;50.756;4.472;2023-05-06T09:18:08;5.60;;;3.75;;
8831;SDS011;4452;50.756;4.472;2023-05-06T09:20:35;7.22;;;3.38;;
8831;SDS011;4452;50.756;4.472;2023-05-06T09:23:05;3.90;;;3.00;;
8831;SDS011;4452;50.756;4.472;2023-05-06T09:25:34;4.45;;;2.65;;
8831;SDS011;4452;50.756;4.472;2023-05-06T09:28:04;4.47;;;2.55;;
8831;SDS011;4452;50.756;4.472;2023-05-06T09:30:41;8.88;;;2.40;;
8831;SDS011;4452;50.756;4.472;2023-05-06T09:33:08;3.70;;;2.50;;
8831;SDS011;4452;50.756;4.472;2023-05-06T09:35:38;6.15;;;2.60;;
8831;SDS011;4452;50.756;4.472;2023-05-06T09:38:06;7.88;;;2.70;;
8831;SDS011;4452;50.756;4.472;2023-05-06T09:40:33;5.05;;;2.35;;
8831;SDS011;4452;50.756;4.472;2023-05-06T09:43:02;5.03;;;2.50;;
8831;SDS011;4452;50.756;4.472;2023-05-06T09:45:28;4.13;;;2.50;;
8831;SDS011;4452;50.756;4.472;2023-05-06T09:47:54;7.95;;;2.50;;
8831;SDS011;4452;50.756;4.472;2023-05-06T09:50:21;4.35;;;2.50;;
8831;SDS011;4452;50.756;4.472;2023-05-06T09:52:48;4.05;;;2.38;;
8831;SDS011;4452;50.756;4.472;2023-05-06T09:55:19;3.42;;;2.55;;
8831;SDS011;4452;50.756;4.472;2023-05-06T09:57:46;5.15;;;2.90;;
8831;SDS011;4452;50.756;4.472;2023-05-06T10:00:13;3.58;;;2.38;;
8831;SDS011;4452;50.756;4.472;2023-05-06T10:02:41;3.78;;;2.30;;
8831;SDS011;4452;50.756;4.472;2023-05-06T10:05:08;8.52;;;2.63;;
8831;SDS011;4452;50.756;4.472;2023-05-06T10:07:34;5.53;;;2.97;;
8831;SDS011;4452;50.756;4.472;2023-05-06T10:10:01;4.78;;;3.10;;
8831;SDS011;4452;50.756;4.472;2023-05-06T10:12:27;3.85;;;2.63;;
8831;SDS011;4452;50.756;4.472;2023-05-06T10:14:53;6.95;;;3.05;;
8831;SDS011;4452;50.756;4.472;2023-05-06T10:17:21;4.43;;;2.60;;
8831;SDS011;4452;50.756;4.472;2023-05-06T10:19:49;5.90;;;3.17;;
8831;SDS011;4452;50.756;4.472;2023-05-06T10:25:03;6.10;;;3.08;;
8831;SDS011;4452;50.756;4.472;2023-05-06T10:27:37;4.53;;;2.72;;
8831;SDS011;4452;50.756;4.472;2023-05-06T10:30:06;6.47;;;2.72;;
8831;SDS011;4452;50.756;4.472;2023-05-06T10:32:33;3.58;;;2.35;;
8831;SDS011;4452;50.756;4.472;2023-05-06T10:35:04;3.65;;;2.53;;
8831;SDS011;4452;50.756;4.472;2023-05-06T10:37:38;2.97;;;2.60;;
8831;SDS011;4452;50.756;4.472;2023-05-06T10:40:04;6.43;;;3.13;;
8831;SDS011;4452;50.756;4.472;2023-05-06T10:42:34;6.65;;;2.97;;
8831;SDS011;4452;50.756;4.472;2023-05-06T10:45:00;7.32;;;3.28;;
8831;SDS011;4452;50.756;4.472;2023-05-06T10:50:21;5.82;;;3.38;;
8831;SDS011;4452;50.756;4.472;2023-05-06T10:52:55;7.05;;;2.92;;
8831;SDS011;4452;50.756;4.472;2023-05-06T10:55:32;4.75;;;2.75;;
8831;SDS011;4452;50.756;4.472;2023-05-06T10:58:04;4.70;;;3.00;;
8831;SDS011;4452;50.756;4.472;2023-05-06T11:00:37;5.63;;;2.95;;
8831;SDS011;4452;50.756;4.472;2023-05-06T11:03:06;4.15;;;2.67;;
8831;SDS011;4452;50.756;4.472;2023-05-06T11:05:47;4.43;;;2.60;;
8831;SDS011;4452;50.756;4.472;2023-05-06T11:08:14;3.60;;;2.88;;
8831;SDS011;4452;50.756;4.472;2023-05-06T11:10:45;5.68;;;2.85;;
8831;SDS011;4452;50.756;4.472;2023-05-06T11:13:22;9.18;;;3.47;;
8831;SDS011;4452;50.756;4.472;2023-05-06T11:15:55;4.07;;;2.78;;
8831;SDS011;4452;50.756;4.472;2023-05-06T11:26:13;3.78;;;2.40;;
8831;SDS011;4452;50.756;4.472;2023-05-06T11:28:44;5.10;;;2.63;;
8831;SDS011;4452;50.756;4.472;2023-05-06T11:31:14;4.85;;;2.70;;
8831;SDS011;4452;50.756;4.472;2023-05-06T11:33:44;5.97;;;2.42;;
8831;SDS011;4452;50.756;4.472;2023-05-06T11:36:15;2.28;;;2.00;;
8831;SDS011;4452;50.756;4.472;2023-05-06T11:38:42;5.57;;;2.35;;
8831;SDS011;4452;50.756;4.472;2023-05-06T11:41:12;3.50;;;2.20;;
8831;SDS011;4452;50.756;4.472;2023-05-06T11:43:38;4.28;;;2.75;;
8831;SDS011;4452;50.756;4.472;2023-05-06T11:46:04;5.47;;;2.60;;
8831;SDS011;4452;50.756;4.472;2023-05-06T11:48:30;5.00;;;2.70;;
8831;SDS011;4452;50.756;4.472;2023-05-06T11:50:56;3.97;;;2.70;;
8831;SDS011;4452;50.756;4.472;2023-05-06T11:53:22;4.18;;;2.90;;
8831;SDS011;4452;50.756;4.472;2023-05-06T11:55:49;4.15;;;2.67;;
8831;SDS011;4452;50.756;4.472;2023-05-06T11:58:23;3.72;;;2.72;;
8831;SDS011;4452;50.756;4.472;2023-05-06T12:00:53;3.22;;;2.33;;
8831;SDS011;4452;50.756;4.472;2023-05-06T12:03:20;3.88;;;2.53;;
8831;SDS011;4452;50.756;4.472;2023-05-06T12:05:48;6.22;;;2.88;;
8831;SDS011;4452;50.756;4.472;2023-05-06T12:08:21;5.57;;;2.60;;
8831;SDS011;4452;50.756;4.472;2023-05-06T12:10:53;5.22;;;2.88;;
8831;SDS011;4452;50.756;4.472;2023-05-06T12:13:20;5.13;;;3.00;;
8831;SDS011;4452;50.756;4.472;2023-05-06T12:15:46;3.28;;;2.45;;
8831;SDS011;4452;50.756;4.472;2023-05-06T12:18:13;8.45;;;3.00;;
8831;SDS011;4452;50.756;4.472;2023-05-06T12:20:40;6.90;;;2.58;;
8831;SDS011;4452;50.756;4.472;2023-05-06T12:23:06;6.32;;;2.33;;
8831;SDS011;4452;50.756;4.472;2023-05-06T12:25:33;8.23;;;2.30;;
8831;SDS011;4452;50.756;4.472;2023-05-06T12:27:59;4.07;;;2.35;;
8831;SDS011;4452;50.756;4.472;2023-05-06T12:30:31;9.18;;;2.60;;
8831;SDS011;4452;50.756;4.472;2023-05-06T12:32:58;5.80;;;2.60;;
8831;SDS011;4452;50.756;4.472;2023-05-06T12:35:28;7.70;;;3.20;;
8831;SDS011;4452;50.756;4.472;2023-05-06T12:37:55;8.07;;;2.85;;
8831;SDS011;4452;50.756;4.472;2023-05-06T12:40:31;13.13;;;3.17;;
8831;SDS011;4452;50.756;4.472;2023-05-06T12:42:56;6.00;;;2.50;;
8831;SDS011;4452;50.756;4.472;2023-05-06T12:45:22;5.72;;;2.92;;
8831;SDS011;4452;50.756;4.472;2023-05-06T12:47:55;8.20;;;2.72;;
8831;SDS011;4452;50.756;4.472;2023-05-06T12:50:42;4.97;;;2.42;;
8831;SDS011;4452;50.756;4.472;2023-05-06T12:53:09;4.78;;;2.47;;
8831;SDS011;4452;50.756;4.472;2023-05-06T12:55:39;5.32;;;2.95;;
8831;SDS011;4452;50.756;4.472;2023-05-06T12:58:21;10.60;;;4.38;;
8831;SDS011;4452;50.756;4.472;2023-05-06T13:01:01;4.85;;;2.97;;
8831;SDS011;4452;50.756;4.472;2023-05-06T13:03:27;7.95;;;3.15;;
8831;SDS011;4452;50.756;4.472;2023-05-06T13:05:53;9.85;;;2.90;;
8831;SDS011;4452;50.756;4.472;2023-05-06T13:08:18;7.85;;;2.95;;
8831;SDS011;4452;50.756;4.472;2023-05-06T13:10:44;11.65;;;3.00;;
8831;SDS011;4452;50.756;4.472;2023-05-06T13:13:10;19.35;;;4.30;;
8831;SDS011;4452;50.756;4.472;2023-05-06T13:15:36;6.72;;;3.15;;
8831;SDS011;4452;50.756;4.472;2023-05-06T13:18:03;5.25;;;3.28;;
8831;SDS011;4452;50.756;4.472;2023-05-06T13:20:29;7.38;;;2.95;;
8831;SDS011;4452;50.756;4.472;2023-05-06T13:22:56;5.00;;;2.30;;
8831;SDS011;4452;50.756;4.472;2023-05-06T13:25:21;9.05;;;2.83;;
8831;SDS011;4452;50.756;4.472;2023-05-06T13:27:47;10.43;;;3.15;;
8831;SDS011;4452;50.756;4.472;2023-05-06T13:30:13;6.68;;;2.90;;
8831;SDS011;4452;50.756;4.472;2023-05-06T13:32:39;7.47;;;2.97;;
8831;SDS011;4452;50.756;4.472;2023-05-06T13:35:05;8.15;;;3.30;;
8831;SDS011;4452;50.756;4.472;2023-05-06T13:37:31;9.52;;;3.25;;
8831;SDS011;4452;50.756;4.472;2023-05-06T13:39:56;6.40;;;3.20;;
8831;SDS011;4452;50.756;4.472;2023-05-06T13:42:22;5.07;;;2.80;;
8831;SDS011;4452;50.756;4.472;2023-05-06T13:44:48;4.80;;;2.38;;
8831;SDS011;4452;50.756;4.472;2023-05-06T13:47:13;4.65;;;2.50;;
8831;SDS011;4452;50.756;4.472;2023-05-06T13:49:39;4.43;;;2.38;;
8831;SDS011;4452;50.756;4.472;2023-05-06T13:52:05;5.30;;;2.47;;
8831;SDS011;4452;50.756;4.472;2023-05-06T13:54:30;7.05;;;2.78;;
8831;SDS011;4452;50.756;4.472;2023-05-06T13:56:56;8.05;;;2.83;;
8831;SDS011;4452;50.756;4.472;2023-05-06T13:59:22;6.25;;;2.67;;
8831;SDS011;4452;50.756;4.472;2023-05-06T14:01:48;9.73;;;2.95;;
8831;SDS011;4452;50.756;4.472;2023-05-06T14:04:17;5.32;;;2.55;;
8831;SDS011;4452;50.756;4.472;2023-05-06T14:06:43;10.20;;;2.88;;
8831;SDS011;4452;50.756;4.472;2023-05-06T14:09:09;3.38;;;2.20;;
8831;SDS011;4452;50.756;4.472;2023-05-06T14:11:36;5.10;;;2.50;;
8831;SDS011;4452;50.756;4.472;2023-05-06T14:14:02;7.35;;;2.78;;
8831;SDS011;4452;50.756;4.472;2023-05-06T14:16:27;6.13;;;2.50;;
8831;SDS011;4452;50.756;4.472;2023-05-06T14:18:53;5.88;;;2.67;;
8831;SDS011;4452;50.756;4.472;2023-05-06T14:21:19;11.77;;;2.60;;
8831;SDS011;4452;50.756;4.472;2023-05-06T14:23:44;10.93;;;2.90;;
8831;SDS011;4452;50.756;4.472;2023-05-06T14:26:10;12.45;;;3.50;;
8831;SDS011;4452;50.756;4.472;2023-05-06T14:28:36;6.30;;;2.67;;
8831;SDS011;4452;50.756;4.472;2023-05-06T14:31:01;4.13;;;2.50;;
8831;SDS011;4452;50.756;4.472;2023-05-06T14:33:27;6.95;;;2.65;;
8831;SDS011;4452;50.756;4.472;2023-05-06T14:35:53;9.88;;;2.70;;
8831;SDS011;4452;50.756;4.472;2023-05-06T14:38:18;7.45;;;2.75;;
8831;SDS011;4452;50.756;4.472;2023-05-06T14:40:44;6.45;;;2.90;;
8831;SDS011;4452;50.756;4.472;2023-05-06T14:43:10;4.00;;;2.50;;
8831;SDS011;4452;50.756;4.472;2023-05-06T14:45:35;9.90;;;2.75;;
8831;SDS011;4452;50.756;4.472;2023-05-06T14:48:01;7.32;;;2.92;;
8831;SDS011;4452;50.756;4.472;2023-05-06T14:50:28;6.50;;;2.72;;
8831;SDS011;4452;50.756;4.472;2023-05-06T14:52:54;6.43;;;2.92;;
8831;SDS011;4452;50.756;4.472;2023-05-06T14:55:20;7.97;;;2.65;;
8831;SDS011;4452;50.756;4.472;2023-05-06T14:57:45;7.43;;;2.65;;
8831;SDS011;4452;50.756;4.472;2023-05-06T15:00:11;11.50;;;2.97;;
8831;SDS011;4452;50.756;4.472;2023-05-06T15:02:38;4.97;;;2.25;;
8831;SDS011;4452;50.756;4.472;2023-05-06T15:05:08;12.18;;;2.67;;
8831;SDS011;4452;50.756;4.472;2023-05-06T15:07:34;8.20;;;2.10;;
8831;SDS011;4452;50.756;4.472;2023-05-06T15:10:00;5.38;;;2.15;;
8831;SDS011;4452;50.756;4.472;2023-05-06T15:12:26;6.55;;;2.30;;
8831;SDS011;4452;50.756;4.472;2023-05-06T15:14:52;7.07;;;2.17;;
8831;SDS011;4452;50.756;4.472;2023-05-06T15:17:18;3.53;;;2.03;;
8831;SDS011;4452;50.756;4.472;2023-05-06T15:19:45;7.50;;;2.42;;
8831;SDS011;4452;50.756;4.472;2023-05-06T15:22:11;7.20;;;2.60;;
8831;SDS011;4452;50.756;4.472;2023-05-06T15:24:36;4.07;;;2.10;;
8831;SDS011;4452;50.756;4.472;2023-05-06T15:27:02;5.60;;;2.38;;
8831;SDS011;4452;50.756;4.472;2023-05-06T15:29:28;9.07;;;2.40;;
8831;SDS011;4452;50.756;4.472;2023-05-06T15:31:54;3.00;;;2.10;;